sensor_id;sensor_type;location;lat;lon;timestamp;P1;durP1;ratioP1;P2;durP2;ratioP2
26038;SDS011;13815;52.374;4.882;2022-07-25T00:00:36;37.10;;;26.38;;
26038;SDS011;13815;52.374;4.882;2022-07-25T00:03:02;36.95;;;26.13;;
26038;SDS011;13815;52.374;4.882;2022-07-25T00:05:28;37.03;;;26.42;;
26038;SDS011;13815;52.374;4.882;2022-07-25T00:07:53;37.17;;;25.83;;
26038;SDS011;13815;52.374;4.882;2022-07-25T00:10:19;37.13;;;26.05;;
26038;SDS011;13815;52.374;4.882;2022-07-25T00:12:44;37.42;;;25.98;;
26038;SDS011;13815;52.374;4.882;2022-07-25T00:15:10;37.70;;;26.40;;
26038;SDS011;13815;52.374;4.882;2022-07-25T00:17:36;37.83;;;26.10;;
26038;SDS011;13815;52.374;4.882;2022-07-25T00:20:02;37.75;;;26.48;;
26038;SDS011;13815;52.374;4.882;2022-07-25T00:22:28;37.40;;;26.02;;
26038;SDS011;13815;52.374;4.882;2022-07-25T00:24:53;37.50;;;25.80;;
26038;SDS011;13815;52.374;4.882;2022-07-25T00:27:19;36.55;;;25.80;;
26038;SDS011;13815;52.374;4.882;2022-07-25T00:29:44;36.03;;;25.17;;
26038;SDS011;13815;52.374;4.882;2022-07-25T00:32:10;37.45;;;26.10;;
26038;SDS011;13815;52.374;4.882;2022-07-25T00:34:35;36.50;;;25.55;;
26038;SDS011;13815;52.374;4.882;2022-07-25T00:37:00;37.05;;;25.98;;
26038;SDS011;13815;52.374;4.882;2022-07-25T00:39:26;37.20;;;25.75;;
26038;SDS011;13815;52.374;4.882;2022-07-25T00:41:52;37.28;;;25.90;;
26038;SDS011;13815;52.374;4.882;2022-07-25T00:44:21;38.72;;;26.65;;
26038;SDS011;13815;52.374;4.882;2022-07-25T00:46:48;36.55;;;26.00;;
26038;SDS011;13815;52.374;4.882;2022-07-25T00:49:14;37.50;;;26.23;;
26038;SDS011;13815;52.374;4.882;2022-07-25T00:51:39;38.10;;;26.10;;
26038;SDS011;13815;52.374;4.882;2022-07-25T00:54:07;37.97;;;26.42;;
26038;SDS011;13815;52.374;4.882;2022-07-25T00:56:33;37.45;;;26.08;;
26038;SDS011;13815;52.374;4.882;2022-07-25T00:58:58;37.65;;;26.48;;
26038;SDS011;13815;52.374;4.882;2022-07-25T01:01:27;37.38;;;25.98;;
26038;SDS011;13815;52.374;4.882;2022-07-25T01:03:52;36.45;;;25.95;;
26038;SDS011;13815;52.374;4.882;2022-07-25T01:06:18;36.78;;;25.70;;
26038;SDS011;13815;52.374;4.882;2022-07-25T01:08:44;37.70;;;26.42;;
26038;SDS011;13815;52.374;4.882;2022-07-25T01:11:09;37.88;;;26.70;;
26038;SDS011;13815;52.374;4.882;2022-07-25T01:13:35;38.28;;;26.75;;
26038;SDS011;13815;52.374;4.882;2022-07-25T01:16:01;38.35;;;26.58;;
26038;SDS011;13815;52.374;4.882;2022-07-25T01:18:29;38.40;;;26.52;;
26038;SDS011;13815;52.374;4.882;2022-07-25T01:20:57;38.20;;;26.70;;
26038;SDS011;13815;52.374;4.882;2022-07-25T01:23:22;37.85;;;26.45;;
26038;SDS011;13815;52.374;4.882;2022-07-25T01:25:47;38.65;;;26.45;;
26038;SDS011;13815;52.374;4.882;2022-07-25T01:28:15;37.83;;;26.58;;
26038;SDS011;13815;52.374;4.882;2022-07-25T01:30:42;38.08;;;26.40;;
26038;SDS011;13815;52.374;4.882;2022-07-25T01:33:08;39.15;;;26.75;;
26038;SDS011;13815;52.374;4.882;2022-07-25T01:35:33;38.67;;;26.92;;
26038;SDS011;13815;52.374;4.882;2022-07-25T01:37:59;38.22;;;26.40;;
26038;SDS011;13815;52.374;4.882;2022-07-25T01:40:24;39.17;;;27.00;;
26038;SDS011;13815;52.374;4.882;2022-07-25T01:42:50;38.38;;;26.23;;
26038;SDS011;13815;52.374;4.882;2022-07-25T01:45:18;37.75;;;26.90;;
26038;SDS011;13815;52.374;4.882;2022-07-25T01:47:44;38.30;;;26.77;;
26038;SDS011;13815;52.374;4.882;2022-07-25T01:50:09;39.25;;;26.88;;
26038;SDS011;13815;52.374;4.882;2022-07-25T01:52:36;38.40;;;26.48;;
26038;SDS011;13815;52.374;4.882;2022-07-25T01:55:04;38.47;;;26.45;;
26038;SDS011;13815;52.374;4.882;2022-07-25T01:57:30;38.88;;;26.40;;
26038;SDS011;13815;52.374;4.882;2022-07-25T01:59:55;38.92;;;26.30;;
26038;SDS011;13815;52.374;4.882;2022-07-25T02:02:21;38.22;;;26.33;;
26038;SDS011;13815;52.374;4.882;2022-07-25T02:04:46;38.60;;;26.88;;
26038;SDS011;13815;52.374;4.882;2022-07-25T02:07:11;38.72;;;26.42;;
26038;SDS011;13815;52.374;4.882;2022-07-25T02:09:41;37.50;;;26.23;;
26038;SDS011;13815;52.374;4.882;2022-07-25T02:12:09;38.28;;;26.88;;
26038;SDS011;13815;52.374;4.882;2022-07-25T02:14:37;38.38;;;26.20;;
26038;SDS011;13815;52.374;4.882;2022-07-25T02:17:08;38.30;;;26.42;;
26038;SDS011;13815;52.374;4.882;2022-07-25T02:19:33;38.05;;;26.70;;
26038;SDS011;13815;52.374;4.882;2022-07-25T02:21:58;37.72;;;26.17;;
26038;SDS011;13815;52.374;4.882;2022-07-25T02:24:24;37.70;;;26.27;;
26038;SDS011;13815;52.374;4.882;2022-07-25T02:26:52;38.17;;;27.02;;
26038;SDS011;13815;52.374;4.882;2022-07-25T02:29:17;37.63;;;27.00;;
26038;SDS011;13815;52.374;4.882;2022-07-25T02:31:43;37.85;;;26.38;;
26038;SDS011;13815;52.374;4.882;2022-07-25T02:34:08;38.05;;;26.45;;
26038;SDS011;13815;52.374;4.882;2022-07-25T02:36:34;37.65;;;26.25;;
26038;SDS011;13815;52.374;4.882;2022-07-25T02:38:59;38.53;;;26.75;;
26038;SDS011;13815;52.374;4.882;2022-07-25T02:41:25;38.25;;;26.48;;
26038;SDS011;13815;52.374;4.882;2022-07-25T02:43:50;38.47;;;27.05;;
26038;SDS011;13815;52.374;4.882;2022-07-25T02:46:16;37.55;;;26.30;;
26038;SDS011;13815;52.374;4.882;2022-07-25T02:48:41;38.10;;;26.48;;
26038;SDS011;13815;52.374;4.882;2022-07-25T02:51:06;37.47;;;26.25;;
26038;SDS011;13815;52.374;4.882;2022-07-25T02:53:32;37.17;;;26.27;;
26038;SDS011;13815;52.374;4.882;2022-07-25T02:55:57;38.30;;;26.88;;
26038;SDS011;13815;52.374;4.882;2022-07-25T02:58:22;38.83;;;27.05;;
26038;SDS011;13815;52.374;4.882;2022-07-25T03:00:48;38.33;;;26.88;;
26038;SDS011;13815;52.374;4.882;2022-07-25T03:03:16;37.33;;;25.83;;
26038;SDS011;13815;52.374;4.882;2022-07-25T03:05:41;37.22;;;25.65;;
26038;SDS011;13815;52.374;4.882;2022-07-25T03:08:06;36.47;;;25.83;;
26038;SDS011;13815;52.374;4.882;2022-07-25T03:10:32;36.88;;;26.00;;
26038;SDS011;13815;52.374;4.882;2022-07-25T03:12:58;36.92;;;25.88;;
26038;SDS011;13815;52.374;4.882;2022-07-25T03:15:23;37.60;;;26.08;;
26038;SDS011;13815;52.374;4.882;2022-07-25T03:17:49;37.15;;;26.00;;
26038;SDS011;13815;52.374;4.882;2022-07-25T03:20:15;36.75;;;25.33;;
26038;SDS011;13815;52.374;4.882;2022-07-25T03:22:40;36.35;;;24.92;;
26038;SDS011;13815;52.374;4.882;2022-07-25T03:25:06;36.85;;;25.45;;
26038;SDS011;13815;52.374;4.882;2022-07-25T03:27:32;36.78;;;25.52;;
26038;SDS011;13815;52.374;4.882;2022-07-25T03:29:57;36.95;;;25.67;;
26038;SDS011;13815;52.374;4.882;2022-07-25T03:32:23;36.90;;;25.73;;
26038;SDS011;13815;52.374;4.882;2022-07-25T03:34:49;36.85;;;25.40;;
26038;SDS011;13815;52.374;4.882;2022-07-25T03:37:14;35.47;;;25.05;;
26038;SDS011;13815;52.374;4.882;2022-07-25T03:39:40;35.50;;;25.17;;
26038;SDS011;13815;52.374;4.882;2022-07-25T03:42:05;36.13;;;24.98;;
26038;SDS011;13815;52.374;4.882;2022-07-25T03:44:31;35.20;;;24.83;;
26038;SDS011;13815;52.374;4.882;2022-07-25T03:46:56;36.13;;;25.13;;
26038;SDS011;13815;52.374;4.882;2022-07-25T03:49:21;36.15;;;24.95;;
26038;SDS011;13815;52.374;4.882;2022-07-25T03:51:47;36.90;;;25.77;;
26038;SDS011;13815;52.374;4.882;2022-07-25T03:54:12;35.17;;;24.67;;
26038;SDS011;13815;52.374;4.882;2022-07-25T03:56:39;35.30;;;25.10;;
26038;SDS011;13815;52.374;4.882;2022-07-25T03:59:07;37.00;;;25.50;;
26038;SDS011;13815;52.374;4.882;2022-07-25T04:01:33;36.35;;;26.05;;
26038;SDS011;13815;52.374;4.882;2022-07-25T04:03:59;37.50;;;25.92;;
26038;SDS011;13815;52.374;4.882;2022-07-25T04:06:25;37.35;;;26.27;;
26038;SDS011;13815;52.374;4.882;2022-07-25T04:08:54;37.78;;;25.92;;
26038;SDS011;13815;52.374;4.882;2022-07-25T04:11:20;36.63;;;25.95;;
26038;SDS011;13815;52.374;4.882;2022-07-25T04:13:49;36.70;;;25.95;;
26038;SDS011;13815;52.374;4.882;2022-07-25T04:16:15;35.85;;;24.58;;
26038;SDS011;13815;52.374;4.882;2022-07-25T04:18:41;36.85;;;24.92;;
26038;SDS011;13815;52.374;4.882;2022-07-25T04:21:07;37.17;;;24.95;;
26038;SDS011;13815;52.374;4.882;2022-07-25T04:23:32;37.25;;;24.58;;
26038;SDS011;13815;52.374;4.882;2022-07-25T04:25:58;38.42;;;25.20;;
26038;SDS011;13815;52.374;4.882;2022-07-25T04:28:23;37.15;;;24.80;;
26038;SDS011;13815;52.374;4.882;2022-07-25T04:30:49;37.17;;;24.65;;
26038;SDS011;13815;52.374;4.882;2022-07-25T04:33:15;36.53;;;24.15;;
26038;SDS011;13815;52.374;4.882;2022-07-25T04:35:40;36.78;;;24.20;;
26038;SDS011;13815;52.374;4.882;2022-07-25T04:38:06;37.28;;;24.85;;
26038;SDS011;13815;52.374;4.882;2022-07-25T04:40:31;36.70;;;24.58;;
26038;SDS011;13815;52.374;4.882;2022-07-25T04:42:59;37.42;;;24.85;;
26038;SDS011;13815;52.374;4.882;2022-07-25T04:45:25;36.25;;;24.85;;
26038;SDS011;13815;52.374;4.882;2022-07-25T04:47:51;36.58;;;24.65;;
26038;SDS011;13815;52.374;4.882;2022-07-25T04:50:16;35.38;;;24.55;;
26038;SDS011;13815;52.374;4.882;2022-07-25T04:52:42;34.90;;;23.98;;
26038;SDS011;13815;52.374;4.882;2022-07-25T04:55:08;35.92;;;24.10;;
26038;SDS011;13815;52.374;4.882;2022-07-25T04:57:33;34.22;;;23.95;;
26038;SDS011;13815;52.374;4.882;2022-07-25T04:59:59;34.95;;;24.05;;
26038;SDS011;13815;52.374;4.882;2022-07-25T05:02:25;35.63;;;23.88;;
26038;SDS011;13815;52.374;4.882;2022-07-25T05:04:50;35.13;;;24.00;;
26038;SDS011;13815;52.374;4.882;2022-07-25T05:07:16;35.13;;;23.88;;
26038;SDS011;13815;52.374;4.882;2022-07-25T05:09:42;35.47;;;23.85;;
26038;SDS011;13815;52.374;4.882;2022-07-25T05:12:07;35.53;;;24.08;;
26038;SDS011;13815;52.374;4.882;2022-07-25T05:14:33;35.90;;;23.95;;
26038;SDS011;13815;52.374;4.882;2022-07-25T05:16:59;35.60;;;24.25;;
26038;SDS011;13815;52.374;4.882;2022-07-25T05:19:24;34.90;;;23.90;;
26038;SDS011;13815;52.374;4.882;2022-07-25T05:21:50;36.00;;;24.50;;
26038;SDS011;13815;52.374;4.882;2022-07-25T05:24:15;36.05;;;24.23;;
26038;SDS011;13815;52.374;4.882;2022-07-25T05:26:41;36.10;;;24.30;;
26038;SDS011;13815;52.374;4.882;2022-07-25T05:29:06;35.67;;;24.23;;
26038;SDS011;13815;52.374;4.882;2022-07-25T05:31:32;34.40;;;23.88;;
26038;SDS011;13815;52.374;4.882;2022-07-25T05:33:57;35.03;;;24.00;;
26038;SDS011;13815;52.374;4.882;2022-07-25T05:36:23;34.63;;;24.05;;
26038;SDS011;13815;52.374;4.882;2022-07-25T05:38:48;34.47;;;23.92;;
26038;SDS011;13815;52.374;4.882;2022-07-25T05:41:21;35.42;;;24.00;;
26038;SDS011;13815;52.374;4.882;2022-07-25T05:43:47;36.15;;;24.17;;
26038;SDS011;13815;52.374;4.882;2022-07-25T05:46:13;34.83;;;24.35;;
26038;SDS011;13815;52.374;4.882;2022-07-25T05:48:39;34.15;;;24.52;;
26038;SDS011;13815;52.374;4.882;2022-07-25T05:51:05;33.28;;;23.70;;
26038;SDS011;13815;52.374;4.882;2022-07-25T05:53:30;34.47;;;24.20;;
26038;SDS011;13815;52.374;4.882;2022-07-25T05:55:56;32.03;;;23.50;;
26038;SDS011;13815;52.374;4.882;2022-07-25T05:58:22;32.33;;;23.50;;
26038;SDS011;13815;52.374;4.882;2022-07-25T06:00:47;30.17;;;22.38;;
26038;SDS011;13815;52.374;4.882;2022-07-25T06:03:15;31.75;;;23.10;;
26038;SDS011;13815;52.374;4.882;2022-07-25T06:05:42;30.30;;;23.42;;
26038;SDS011;13815;52.374;4.882;2022-07-25T06:08:07;30.55;;;23.30;;
26038;SDS011;13815;52.374;4.882;2022-07-25T06:10:33;30.17;;;23.02;;
26038;SDS011;13815;52.374;4.882;2022-07-25T06:12:58;30.00;;;22.38;;
26038;SDS011;13815;52.374;4.882;2022-07-25T06:15:23;29.35;;;22.35;;
26038;SDS011;13815;52.374;4.882;2022-07-25T06:17:49;29.77;;;22.85;;
26038;SDS011;13815;52.374;4.882;2022-07-25T06:20:14;28.70;;;22.13;;
26038;SDS011;13815;52.374;4.882;2022-07-25T06:22:40;29.17;;;22.33;;
26038;SDS011;13815;52.374;4.882;2022-07-25T06:25:05;27.25;;;21.55;;
26038;SDS011;13815;52.374;4.882;2022-07-25T06:27:31;28.30;;;21.98;;
26038;SDS011;13815;52.374;4.882;2022-07-25T06:29:57;27.23;;;21.48;;
26038;SDS011;13815;52.374;4.882;2022-07-25T06:32:22;27.58;;;21.92;;
26038;SDS011;13815;52.374;4.882;2022-07-25T06:34:48;27.30;;;21.40;;
26038;SDS011;13815;52.374;4.882;2022-07-25T06:37:13;26.55;;;21.58;;
26038;SDS011;13815;52.374;4.882;2022-07-25T06:39:40;26.75;;;21.13;;
26038;SDS011;13815;52.374;4.882;2022-07-25T06:42:05;25.23;;;20.73;;
26038;SDS011;13815;52.374;4.882;2022-07-25T06:44:31;25.77;;;20.92;;
26038;SDS011;13815;52.374;4.882;2022-07-25T06:46:57;24.92;;;20.52;;
26038;SDS011;13815;52.374;4.882;2022-07-25T06:49:24;25.08;;;20.90;;
26038;SDS011;13815;52.374;4.882;2022-07-25T06:51:49;23.98;;;20.92;;
26038;SDS011;13815;52.374;4.882;2022-07-25T06:54:14;22.35;;;19.85;;
26038;SDS011;13815;52.374;4.882;2022-07-25T06:56:40;21.92;;;19.63;;
26038;SDS011;13815;52.374;4.882;2022-07-25T06:59:05;21.52;;;19.33;;
26038;SDS011;13815;52.374;4.882;2022-07-25T07:01:30;23.35;;;20.95;;
26038;SDS011;13815;52.374;4.882;2022-07-25T07:03:56;23.25;;;20.85;;
26038;SDS011;13815;52.374;4.882;2022-07-25T07:06:21;23.15;;;20.75;;
26038;SDS011;13815;52.374;4.882;2022-07-25T07:08:47;22.05;;;19.85;;
26038;SDS011;13815;52.374;4.882;2022-07-25T07:11:12;21.30;;;19.20;;
26038;SDS011;13815;52.374;4.882;2022-07-25T07:13:39;20.23;;;18.38;;
26038;SDS011;13815;52.374;4.882;2022-07-25T07:16:04;20.85;;;18.95;;
26038;SDS011;13815;52.374;4.882;2022-07-25T07:18:30;20.20;;;18.40;;
26038;SDS011;13815;52.374;4.882;2022-07-25T07:20:55;19.23;;;17.63;;
26038;SDS011;13815;52.374;4.882;2022-07-25T07:23:21;20.20;;;18.40;;
26038;SDS011;13815;52.374;4.882;2022-07-25T07:25:46;18.65;;;17.15;;
26038;SDS011;13815;52.374;4.882;2022-07-25T07:28:12;20.48;;;18.67;;
26038;SDS011;13815;52.374;4.882;2022-07-25T07:30:38;20.73;;;18.83;;
26038;SDS011;13815;52.374;4.882;2022-07-25T07:33:03;19.85;;;18.15;;
26038;SDS011;13815;52.374;4.882;2022-07-25T07:35:28;19.67;;;17.98;;
26038;SDS011;13815;52.374;4.882;2022-07-25T07:37:54;17.33;;;16.13;;
26038;SDS011;13815;52.374;4.882;2022-07-25T07:40:19;17.60;;;16.30;;
26038;SDS011;13815;52.374;4.882;2022-07-25T07:42:46;18.98;;;17.48;;
26038;SDS011;13815;52.374;4.882;2022-07-25T07:45:16;17.45;;;16.25;;
26038;SDS011;13815;52.374;4.882;2022-07-25T07:47:42;16.30;;;15.30;;
26038;SDS011;13815;52.374;4.882;2022-07-25T07:50:08;15.20;;;14.40;;
26038;SDS011;13815;52.374;4.882;2022-07-25T07:52:35;16.08;;;15.13;;
26038;SDS011;13815;52.374;4.882;2022-07-25T07:55:02;16.90;;;15.80;;
26038;SDS011;13815;52.374;4.882;2022-07-25T07:57:46;17.90;;;16.60;;
26038;SDS011;13815;52.374;4.882;2022-07-25T08:00:13;16.33;;;15.23;;
26038;SDS011;13815;52.374;4.882;2022-07-25T08:02:42;17.52;;;16.23;;
26038;SDS011;13815;52.374;4.882;2022-07-25T08:05:08;18.60;;;17.10;;
26038;SDS011;13815;52.374;4.882;2022-07-25T08:07:34;17.73;;;16.45;;
26038;SDS011;13815;52.374;4.882;2022-07-25T08:09:59;18.73;;;17.23;;
26038;SDS011;13815;52.374;4.882;2022-07-25T08:12:24;18.98;;;17.48;;
26038;SDS011;13815;52.374;4.882;2022-07-25T08:14:50;18.27;;;16.88;;
26038;SDS011;13815;52.374;4.882;2022-07-25T08:17:15;18.70;;;17.20;;
26038;SDS011;13815;52.374;4.882;2022-07-25T08:19:40;18.13;;;16.73;;
26038;SDS011;13815;52.374;4.882;2022-07-25T08:22:06;19.42;;;17.73;;
26038;SDS011;13815;52.374;4.882;2022-07-25T08:24:31;19.60;;;17.90;;
26038;SDS011;13815;52.374;4.882;2022-07-25T08:26:57;19.70;;;17.95;;
26038;SDS011;13815;52.374;4.882;2022-07-25T08:29:22;20.73;;;18.83;;
26038;SDS011;13815;52.374;4.882;2022-07-25T08:31:47;19.77;;;17.98;;
26038;SDS011;13815;52.374;4.882;2022-07-25T08:34:13;19.88;;;18.08;;
26038;SDS011;13815;52.374;4.882;2022-07-25T08:36:38;20.05;;;18.20;;
26038;SDS011;13815;52.374;4.882;2022-07-25T08:39:03;20.70;;;18.70;;
26038;SDS011;13815;52.374;4.882;2022-07-25T08:41:29;21.17;;;19.10;;
26038;SDS011;13815;52.374;4.882;2022-07-25T08:43:56;21.35;;;19.25;;
26038;SDS011;13815;52.374;4.882;2022-07-25T08:46:22;21.27;;;19.17;;
26038;SDS011;13815;52.374;4.882;2022-07-25T08:48:47;21.23;;;19.13;;
26038;SDS011;13815;52.374;4.882;2022-07-25T08:51:13;21.17;;;19.08;;
26038;SDS011;13815;52.374;4.882;2022-07-25T08:53:39;21.67;;;19.48;;
26038;SDS011;13815;52.374;4.882;2022-07-25T08:56:05;21.67;;;19.45;;
26038;SDS011;13815;52.374;4.882;2022-07-25T08:58:31;22.40;;;20.00;;
26038;SDS011;13815;52.374;4.882;2022-07-25T09:00:57;22.90;;;20.50;;
26038;SDS011;13815;52.374;4.882;2022-07-25T09:03:22;23.23;;;20.73;;
26038;SDS011;13815;52.374;4.882;2022-07-25T09:05:47;23.42;;;20.90;;
26038;SDS011;13815;52.374;4.882;2022-07-25T09:08:14;24.50;;;21.13;;
26038;SDS011;13815;52.374;4.882;2022-07-25T09:10:45;24.00;;;21.05;;
26038;SDS011;13815;52.374;4.882;2022-07-25T09:13:12;24.23;;;20.90;;
26038;SDS011;13815;52.374;4.882;2022-07-25T09:15:39;24.48;;;21.20;;
26038;SDS011;13815;52.374;4.882;2022-07-25T09:18:08;25.10;;;20.88;;
26038;SDS011;13815;52.374;4.882;2022-07-25T09:20:56;24.67;;;21.00;;
26038;SDS011;13815;52.374;4.882;2022-07-25T09:23:30;24.80;;;20.90;;
26038;SDS011;13815;52.374;4.882;2022-07-25T09:26:03;24.08;;;20.98;;
26038;SDS011;13815;52.374;4.882;2022-07-25T09:28:29;23.90;;;20.88;;
26038;SDS011;13815;52.374;4.882;2022-07-25T09:30:58;23.35;;;20.67;;
26038;SDS011;13815;52.374;4.882;2022-07-25T09:33:25;23.15;;;20.58;;
26038;SDS011;13815;52.374;4.882;2022-07-25T09:35:52;24.15;;;20.65;;
26038;SDS011;13815;52.374;4.882;2022-07-25T09:38:19;23.55;;;20.73;;
26038;SDS011;13815;52.374;4.882;2022-07-25T09:40:54;24.88;;;21.20;;
26038;SDS011;13815;52.374;4.882;2022-07-25T09:43:21;24.02;;;20.80;;
26038;SDS011;13815;52.374;4.882;2022-07-25T09:45:47;24.45;;;21.30;;
26038;SDS011;13815;52.374;4.882;2022-07-25T09:48:14;24.02;;;21.05;;
26038;SDS011;13815;52.374;4.882;2022-07-25T09:50:42;23.58;;;20.73;;
26038;SDS011;13815;52.374;4.882;2022-07-25T09:53:08;24.35;;;21.27;;
26038;SDS011;13815;52.374;4.882;2022-07-25T09:55:33;23.30;;;20.80;;
26038;SDS011;13815;52.374;4.882;2022-07-25T09:57:59;24.00;;;21.10;;
26038;SDS011;13815;52.374;4.882;2022-07-25T10:00:25;25.30;;;21.27;;
26038;SDS011;13815;52.374;4.882;2022-07-25T10:08:28;28.10;;;22.55;;
26038;SDS011;13815;52.374;4.882;2022-07-25T10:10:59;27.60;;;22.10;;
26038;SDS011;13815;52.374;4.882;2022-07-25T10:13:29;28.27;;;22.27;;
26038;SDS011;13815;52.374;4.882;2022-07-25T10:15:58;28.23;;;22.15;;
26038;SDS011;13815;52.374;4.882;2022-07-25T10:18:25;27.98;;;22.55;;
26038;SDS011;13815;52.374;4.882;2022-07-25T10:20:55;29.02;;;23.15;;
26038;SDS011;13815;52.374;4.882;2022-07-25T10:23:33;28.30;;;22.60;;
26038;SDS011;13815;52.374;4.882;2022-07-25T10:26:14;28.90;;;22.73;;
26038;SDS011;13815;52.374;4.882;2022-07-25T10:31:16;27.73;;;22.23;;
26038;SDS011;13815;52.374;4.882;2022-07-25T10:33:42;27.35;;;22.30;;
26038;SDS011;13815;52.374;4.882;2022-07-25T10:36:08;27.50;;;21.77;;
26038;SDS011;13815;52.374;4.882;2022-07-25T10:38:37;27.02;;;21.85;;
26038;SDS011;13815;52.374;4.882;2022-07-25T10:41:05;26.55;;;21.70;;
26038;SDS011;13815;52.374;4.882;2022-07-25T10:43:36;27.38;;;22.02;;
26038;SDS011;13815;52.374;4.882;2022-07-25T10:46:09;27.35;;;21.98;;
26038;SDS011;13815;52.374;4.882;2022-07-25T10:48:36;26.40;;;21.60;;
26038;SDS011;13815;52.374;4.882;2022-07-25T10:51:02;27.00;;;22.33;;
26038;SDS011;13815;52.374;4.882;2022-07-25T10:53:35;26.75;;;22.10;;
26038;SDS011;13815;52.374;4.882;2022-07-25T10:58:45;27.67;;;22.88;;
26038;SDS011;13815;52.374;4.882;2022-07-25T11:01:21;26.85;;;22.23;;
26038;SDS011;13815;52.374;4.882;2022-07-25T11:03:47;27.13;;;22.52;;
26038;SDS011;13815;52.374;4.882;2022-07-25T11:06:13;29.10;;;23.40;;
26038;SDS011;13815;52.374;4.882;2022-07-25T11:08:39;30.27;;;23.58;;
26038;SDS011;13815;52.374;4.882;2022-07-25T11:11:06;29.25;;;22.95;;
26038;SDS011;13815;52.374;4.882;2022-07-25T11:13:35;29.60;;;23.08;;
26038;SDS011;13815;52.374;4.882;2022-07-25T11:16:01;30.85;;;23.85;;
26038;SDS011;13815;52.374;4.882;2022-07-25T11:18:35;30.58;;;23.75;;
26038;SDS011;13815;52.374;4.882;2022-07-25T11:21:03;30.63;;;24.23;;
26038;SDS011;13815;52.374;4.882;2022-07-25T11:23:29;30.35;;;24.23;;
26038;SDS011;13815;52.374;4.882;2022-07-25T11:26:04;29.95;;;23.77;;
26038;SDS011;13815;52.374;4.882;2022-07-25T11:28:39;30.35;;;23.98;;
26038;SDS011;13815;52.374;4.882;2022-07-25T11:31:06;30.10;;;23.42;;
26038;SDS011;13815;52.374;4.882;2022-07-25T11:33:31;29.90;;;23.92;;
26038;SDS011;13815;52.374;4.882;2022-07-25T11:35:59;29.17;;;23.60;;
26038;SDS011;13815;52.374;4.882;2022-07-25T11:38:25;29.65;;;23.63;;
26038;SDS011;13815;52.374;4.882;2022-07-25T11:40:51;29.65;;;23.90;;
26038;SDS011;13815;52.374;4.882;2022-07-25T11:43:23;29.90;;;24.23;;
26038;SDS011;13815;52.374;4.882;2022-07-25T11:46:05;31.10;;;24.40;;
26038;SDS011;13815;52.374;4.882;2022-07-25T11:48:33;31.77;;;24.53;;
26038;SDS011;13815;52.374;4.882;2022-07-25T11:53:39;32.20;;;25.10;;
26038;SDS011;13815;52.374;4.882;2022-07-25T11:56:12;32.08;;;25.00;;
26038;SDS011;13815;52.374;4.882;2022-07-25T11:58:42;30.70;;;24.38;;
26038;SDS011;13815;52.374;4.882;2022-07-25T12:01:10;31.30;;;24.00;;
26038;SDS011;13815;52.374;4.882;2022-07-25T12:03:36;31.02;;;24.98;;
26038;SDS011;13815;52.374;4.882;2022-07-25T12:06:09;30.02;;;24.67;;
26038;SDS011;13815;52.374;4.882;2022-07-25T12:08:39;30.98;;;25.15;;
26038;SDS011;13815;52.374;4.882;2022-07-25T12:11:19;30.65;;;24.98;;
26038;SDS011;13815;52.374;4.882;2022-07-25T12:13:45;31.38;;;24.88;;
26038;SDS011;13815;52.374;4.882;2022-07-25T12:16:14;31.25;;;25.30;;
26038;SDS011;13815;52.374;4.882;2022-07-25T12:18:39;31.73;;;25.92;;
26038;SDS011;13815;52.374;4.882;2022-07-25T12:21:05;31.92;;;26.25;;
26038;SDS011;13815;52.374;4.882;2022-07-25T12:23:30;32.05;;;26.25;;
26038;SDS011;13815;52.374;4.882;2022-07-25T12:25:56;30.73;;;25.13;;
26038;SDS011;13815;52.374;4.882;2022-07-25T12:28:21;31.15;;;24.75;;
26038;SDS011;13815;52.374;4.882;2022-07-25T12:30:47;31.55;;;25.30;;
26038;SDS011;13815;52.374;4.882;2022-07-25T12:33:13;31.98;;;25.70;;
26038;SDS011;13815;52.374;4.882;2022-07-25T12:35:42;32.42;;;26.75;;
26038;SDS011;13815;52.374;4.882;2022-07-25T12:38:08;31.20;;;24.83;;
26038;SDS011;13815;52.374;4.882;2022-07-25T12:40:35;32.80;;;26.55;;
26038;SDS011;13815;52.374;4.882;2022-07-25T12:43:02;31.83;;;26.35;;
26038;SDS011;13815;52.374;4.882;2022-07-25T12:45:28;32.97;;;27.70;;
26038;SDS011;13815;52.374;4.882;2022-07-25T12:47:53;32.22;;;26.58;;
26038;SDS011;13815;52.374;4.882;2022-07-25T12:50:19;31.98;;;27.17;;
26038;SDS011;13815;52.374;4.882;2022-07-25T12:52:44;31.02;;;25.65;;
26038;SDS011;13815;52.374;4.882;2022-07-25T12:55:11;31.08;;;26.42;;
26038;SDS011;13815;52.374;4.882;2022-07-25T12:57:39;30.52;;;24.52;;
26038;SDS011;13815;52.374;4.882;2022-07-25T13:00:05;30.90;;;24.67;;
26038;SDS011;13815;52.374;4.882;2022-07-25T13:02:32;31.17;;;24.67;;
26038;SDS011;13815;52.374;4.882;2022-07-25T13:04:58;31.67;;;24.55;;
26038;SDS011;13815;52.374;4.882;2022-07-25T13:07:23;31.10;;;24.30;;
26038;SDS011;13815;52.374;4.882;2022-07-25T13:09:50;31.27;;;24.88;;
26038;SDS011;13815;52.374;4.882;2022-07-25T13:12:16;31.33;;;24.10;;
26038;SDS011;13815;52.374;4.882;2022-07-25T13:14:42;30.95;;;24.55;;
26038;SDS011;13815;52.374;4.882;2022-07-25T13:17:07;33.25;;;24.98;;
26038;SDS011;13815;52.374;4.882;2022-07-25T13:19:32;32.33;;;25.15;;
26038;SDS011;13815;52.374;4.882;2022-07-25T13:21:58;32.08;;;25.02;;
26038;SDS011;13815;52.374;4.882;2022-07-25T13:24:23;32.20;;;24.33;;
26038;SDS011;13815;52.374;4.882;2022-07-25T13:26:50;32.72;;;24.67;;
26038;SDS011;13815;52.374;4.882;2022-07-25T13:29:15;33.28;;;24.80;;
26038;SDS011;13815;52.374;4.882;2022-07-25T13:31:41;32.25;;;24.55;;
26038;SDS011;13815;52.374;4.882;2022-07-25T13:34:07;33.22;;;24.65;;
26038;SDS011;13815;52.374;4.882;2022-07-25T13:36:33;32.63;;;25.15;;
26038;SDS011;13815;52.374;4.882;2022-07-25T13:38:59;33.50;;;25.55;;
26038;SDS011;13815;52.374;4.882;2022-07-25T13:41:24;34.53;;;25.83;;
26038;SDS011;13815;52.374;4.882;2022-07-25T13:43:50;32.97;;;26.17;;
26038;SDS011;13815;52.374;4.882;2022-07-25T13:46:15;33.17;;;27.02;;
26038;SDS011;13815;52.374;4.882;2022-07-25T13:48:41;33.42;;;26.75;;
26038;SDS011;13815;52.374;4.882;2022-07-25T13:51:06;32.85;;;25.95;;
26038;SDS011;13815;52.374;4.882;2022-07-25T13:53:31;33.05;;;26.00;;
26038;SDS011;13815;52.374;4.882;2022-07-25T13:55:57;33.03;;;25.15;;
26038;SDS011;13815;52.374;4.882;2022-07-25T13:58:23;32.35;;;24.65;;
26038;SDS011;13815;52.374;4.882;2022-07-25T14:00:49;32.17;;;25.40;;
26038;SDS011;13815;52.374;4.882;2022-07-25T14:03:14;32.38;;;25.40;;
26038;SDS011;13815;52.374;4.882;2022-07-25T14:05:40;32.08;;;25.33;;
26038;SDS011;13815;52.374;4.882;2022-07-25T14:08:06;32.35;;;24.95;;
26038;SDS011;13815;52.374;4.882;2022-07-25T14:10:32;32.75;;;25.80;;
26038;SDS011;13815;52.374;4.882;2022-07-25T14:12:58;31.95;;;25.50;;
26038;SDS011;13815;52.374;4.882;2022-07-25T14:15:23;32.28;;;24.88;;
26038;SDS011;13815;52.374;4.882;2022-07-25T14:17:48;32.90;;;26.35;;
26038;SDS011;13815;52.374;4.882;2022-07-25T14:20:14;33.15;;;25.33;;
26038;SDS011;13815;52.374;4.882;2022-07-25T14:22:39;32.08;;;25.90;;
26038;SDS011;13815;52.374;4.882;2022-07-25T14:25:06;32.53;;;25.67;;
26038;SDS011;13815;52.374;4.882;2022-07-25T14:27:32;31.60;;;25.15;;
26038;SDS011;13815;52.374;4.882;2022-07-25T14:29:57;33.22;;;25.75;;